Terminal Aerodrome Forecast
Issued by NWS

Home | Current Version | Previous Version | Text Only | Print | Product List | Glossary Off
Versions: 1 2 3 4 5 6 7 8 9 10 11 12 13

000
FTUS43 KMPX 311736
TAFRWF
TAF
KRWF 311736Z 3118/0118 29009KT P6SM SKC
     FM010000 14007KT P6SM SCT090
     FM011100 16015G23KT P6SM SCT200
     FM011500 18027G38KT P6SM BKN200=

USA.gov is the U.S. government's official web portal to all federal, state and local government web resources and services.